sensor_id;sensor_type;location;lat;lon;timestamp;P1;durP1;ratioP1;P2;durP2;ratioP2
60492;SDS011;46341;51.290;-2.474;2023-06-22T00:02:14;10.05;;;8.93;;
60492;SDS011;46341;51.290;-2.474;2023-06-22T00:04:41;9.48;;;8.55;;
60492;SDS011;46341;51.290;-2.474;2023-06-22T00:07:07;10.43;;;9.43;;
60492;SDS011;46341;51.290;-2.474;2023-06-22T00:09:34;14.73;;;11.95;;
60492;SDS011;46341;51.290;-2.474;2023-06-22T00:12:01;12.88;;;11.52;;
60492;SDS011;46341;51.290;-2.474;2023-06-22T00:14:27;14.20;;;11.73;;
60492;SDS011;46341;51.290;-2.474;2023-06-22T00:16:54;13.27;;;11.27;;
60492;SDS011;46341;51.290;-2.474;2023-06-22T00:19:25;12.68;;;11.38;;
60492;SDS011;46341;51.290;-2.474;2023-06-22T00:21:51;12.13;;;10.75;;
60492;SDS011;46341;51.290;-2.474;2023-06-22T00:24:21;11.45;;;10.18;;
60492;SDS011;46341;51.290;-2.474;2023-06-22T00:26:48;11.23;;;9.40;;
60492;SDS011;46341;51.290;-2.474;2023-06-22T00:29:15;10.82;;;9.55;;
60492;SDS011;46341;51.290;-2.474;2023-06-22T00:31:41;10.65;;;9.27;;
60492;SDS011;46341;51.290;-2.474;2023-06-22T00:34:08;11.32;;;9.98;;
60492;SDS011;46341;51.290;-2.474;2023-06-22T00:36:35;12.50;;;10.02;;
60492;SDS011;46341;51.290;-2.474;2023-06-22T00:39:02;10.15;;;9.13;;
60492;SDS011;46341;51.290;-2.474;2023-06-22T00:41:29;9.93;;;8.55;;
60492;SDS011;46341;51.290;-2.474;2023-06-22T00:43:55;10.88;;;9.77;;
60492;SDS011;46341;51.290;-2.474;2023-06-22T00:46:22;11.15;;;10.02;;
60492;SDS011;46341;51.290;-2.474;2023-06-22T00:48:49;12.27;;;10.82;;
60492;SDS011;46341;51.290;-2.474;2023-06-22T00:51:16;13.18;;;10.27;;
60492;SDS011;46341;51.290;-2.474;2023-06-22T00:53:42;11.75;;;9.60;;
60492;SDS011;46341;51.290;-2.474;2023-06-22T00:56:09;10.65;;;9.60;;
60492;SDS011;46341;51.290;-2.474;2023-06-22T00:58:38;11.57;;;10.02;;
60492;SDS011;46341;51.290;-2.474;2023-06-22T01:01:08;11.75;;;10.40;;
60492;SDS011;46341;51.290;-2.474;2023-06-22T01:03:34;13.48;;;12.15;;
60492;SDS011;46341;51.290;-2.474;2023-06-22T01:08:34;13.02;;;11.45;;
60492;SDS011;46341;51.290;-2.474;2023-06-22T01:11:10;11.75;;;10.60;;
60492;SDS011;46341;51.290;-2.474;2023-06-22T01:16:07;11.57;;;10.38;;
60492;SDS011;46341;51.290;-2.474;2023-06-22T01:18:36;11.10;;;9.23;;
60492;SDS011;46341;51.290;-2.474;2023-06-22T01:21:04;10.07;;;9.07;;
60492;SDS011;46341;51.290;-2.474;2023-06-22T01:26:25;11.02;;;9.63;;
60492;SDS011;46341;51.290;-2.474;2023-06-22T01:28:55;12.52;;;10.13;;
60492;SDS011;46341;51.290;-2.474;2023-06-22T01:31:23;12.13;;;10.65;;
60492;SDS011;46341;51.290;-2.474;2023-06-22T01:33:54;10.93;;;9.77;;
60492;SDS011;46341;51.290;-2.474;2023-06-22T01:36:21;11.52;;;10.32;;
60492;SDS011;46341;51.290;-2.474;2023-06-22T01:38:48;14.05;;;10.98;;
60492;SDS011;46341;51.290;-2.474;2023-06-22T01:41:16;12.83;;;11.53;;
60492;SDS011;46341;51.290;-2.474;2023-06-22T01:43:42;13.25;;;11.85;;
60492;SDS011;46341;51.290;-2.474;2023-06-22T01:46:10;12.00;;;10.27;;
60492;SDS011;46341;51.290;-2.474;2023-06-22T01:48:36;12.57;;;10.48;;
60492;SDS011;46341;51.290;-2.474;2023-06-22T01:51:04;11.20;;;10.10;;
60492;SDS011;46341;51.290;-2.474;2023-06-22T01:53:30;10.10;;;9.13;;
60492;SDS011;46341;51.290;-2.474;2023-06-22T01:55:57;12.65;;;11.50;;
60492;SDS011;46341;51.290;-2.474;2023-06-22T01:58:25;13.13;;;11.80;;
60492;SDS011;46341;51.290;-2.474;2023-06-22T02:01:02;13.90;;;12.50;;
60492;SDS011;46341;51.290;-2.474;2023-06-22T02:03:35;12.45;;;10.73;;
60492;SDS011;46341;51.290;-2.474;2023-06-22T02:06:06;11.30;;;10.10;;
60492;SDS011;46341;51.290;-2.474;2023-06-22T02:08:39;16.67;;;13.57;;
60492;SDS011;46341;51.290;-2.474;2023-06-22T02:11:06;15.10;;;12.95;;
60492;SDS011;46341;51.290;-2.474;2023-06-22T02:13:33;18.08;;;13.13;;
60492;SDS011;46341;51.290;-2.474;2023-06-22T02:16:00;15.02;;;12.65;;
60492;SDS011;46341;51.290;-2.474;2023-06-22T02:18:27;14.70;;;12.07;;
60492;SDS011;46341;51.290;-2.474;2023-06-22T02:20:54;15.70;;;12.52;;
60492;SDS011;46341;51.290;-2.474;2023-06-22T02:23:20;13.20;;;11.10;;
60492;SDS011;46341;51.290;-2.474;2023-06-22T02:25:47;12.77;;;11.48;;
60492;SDS011;46341;51.290;-2.474;2023-06-22T02:28:13;12.70;;;11.18;;
60492;SDS011;46341;51.290;-2.474;2023-06-22T02:30:40;13.88;;;12.45;;
60492;SDS011;46341;51.290;-2.474;2023-06-22T02:33:06;11.57;;;10.48;;
60492;SDS011;46341;51.290;-2.474;2023-06-22T02:35:33;11.73;;;10.48;;
60492;SDS011;46341;51.290;-2.474;2023-06-22T02:38:02;13.15;;;11.77;;
60492;SDS011;46341;51.290;-2.474;2023-06-22T02:40:29;13.00;;;11.10;;
60492;SDS011;46341;51.290;-2.474;2023-06-22T02:45:28;12.75;;;11.43;;
60492;SDS011;46341;51.290;-2.474;2023-06-22T02:47:55;11.90;;;10.70;;
60492;SDS011;46341;51.290;-2.474;2023-06-22T02:50:22;11.40;;;10.25;;
60492;SDS011;46341;51.290;-2.474;2023-06-22T02:52:48;10.32;;;9.30;;
60492;SDS011;46341;51.290;-2.474;2023-06-22T02:55:15;10.38;;;9.32;;
60492;SDS011;46341;51.290;-2.474;2023-06-22T02:57:41;10.63;;;9.52;;
60492;SDS011;46341;51.290;-2.474;2023-06-22T03:00:10;10.95;;;9.80;;
60492;SDS011;46341;51.290;-2.474;2023-06-22T03:02:49;10.50;;;9.40;;
60492;SDS011;46341;51.290;-2.474;2023-06-22T03:05:16;14.10;;;10.18;;
60492;SDS011;46341;51.290;-2.474;2023-06-22T03:07:44;10.32;;;9.02;;
60492;SDS011;46341;51.290;-2.474;2023-06-22T03:10:12;10.57;;;9.43;;
60492;SDS011;46341;51.290;-2.474;2023-06-22T03:12:38;10.10;;;9.00;;
60492;SDS011;46341;51.290;-2.474;2023-06-22T03:15:05;9.98;;;8.90;;
60492;SDS011;46341;51.290;-2.474;2023-06-22T03:17:33;9.90;;;8.38;;
60492;SDS011;46341;51.290;-2.474;2023-06-22T03:19:59;9.02;;;8.10;;
60492;SDS011;46341;51.290;-2.474;2023-06-22T03:22:26;9.10;;;8.30;;
60492;SDS011;46341;51.290;-2.474;2023-06-22T03:24:52;8.82;;;7.90;;
60492;SDS011;46341;51.290;-2.474;2023-06-22T03:27:19;9.63;;;8.43;;
60492;SDS011;46341;51.290;-2.474;2023-06-22T03:29:45;9.02;;;8.23;;
60492;SDS011;46341;51.290;-2.474;2023-06-22T03:32:12;9.60;;;8.60;;
60492;SDS011;46341;51.290;-2.474;2023-06-22T03:34:38;10.40;;;7.82;;
60492;SDS011;46341;51.290;-2.474;2023-06-22T03:37:04;11.13;;;8.90;;
60492;SDS011;46341;51.290;-2.474;2023-06-22T03:39:31;9.02;;;8.13;;
60492;SDS011;46341;51.290;-2.474;2023-06-22T03:41:58;9.23;;;7.63;;
60492;SDS011;46341;51.290;-2.474;2023-06-22T03:44:24;8.90;;;7.90;;
60492;SDS011;46341;51.290;-2.474;2023-06-22T03:46:51;9.25;;;8.32;;
60492;SDS011;46341;51.290;-2.474;2023-06-22T03:49:17;9.52;;;8.25;;
60492;SDS011;46341;51.290;-2.474;2023-06-22T03:51:43;9.63;;;8.68;;
60492;SDS011;46341;51.290;-2.474;2023-06-22T03:54:10;11.23;;;8.38;;
60492;SDS011;46341;51.290;-2.474;2023-06-22T03:56:36;9.15;;;8.07;;
60492;SDS011;46341;51.290;-2.474;2023-06-22T04:01:30;9.00;;;8.10;;
60492;SDS011;46341;51.290;-2.474;2023-06-22T04:03:57;12.15;;;9.40;;
60492;SDS011;46341;51.290;-2.474;2023-06-22T04:06:23;8.55;;;7.75;;
60492;SDS011;46341;51.290;-2.474;2023-06-22T04:08:50;9.13;;;8.18;;
60492;SDS011;46341;51.290;-2.474;2023-06-22T04:11:17;8.98;;;7.82;;
60492;SDS011;46341;51.290;-2.474;2023-06-22T04:13:44;10.67;;;8.57;;
60492;SDS011;46341;51.290;-2.474;2023-06-22T04:16:11;11.40;;;8.35;;
60492;SDS011;46341;51.290;-2.474;2023-06-22T04:18:37;11.52;;;8.40;;
60492;SDS011;46341;51.290;-2.474;2023-06-22T04:21:04;8.55;;;7.72;;
60492;SDS011;46341;51.290;-2.474;2023-06-22T04:23:30;10.50;;;8.13;;
60492;SDS011;46341;51.290;-2.474;2023-06-22T04:25:57;9.40;;;8.45;;
60492;SDS011;46341;51.290;-2.474;2023-06-22T04:28:24;9.88;;;8.40;;
60492;SDS011;46341;51.290;-2.474;2023-06-22T04:30:53;11.07;;;9.82;;
60492;SDS011;46341;51.290;-2.474;2023-06-22T04:33:23;10.27;;;9.25;;
60492;SDS011;46341;51.290;-2.474;2023-06-22T04:35:50;14.23;;;10.18;;
60492;SDS011;46341;51.290;-2.474;2023-06-22T04:38:16;17.83;;;13.57;;
60492;SDS011;46341;51.290;-2.474;2023-06-22T04:40:43;14.35;;;12.85;;
60492;SDS011;46341;51.290;-2.474;2023-06-22T04:43:09;15.55;;;13.25;;
60492;SDS011;46341;51.290;-2.474;2023-06-22T04:45:36;17.67;;;14.90;;
60492;SDS011;46341;51.290;-2.474;2023-06-22T04:48:05;17.42;;;13.88;;
60492;SDS011;46341;51.290;-2.474;2023-06-22T04:50:32;15.98;;;14.25;;
60492;SDS011;46341;51.290;-2.474;2023-06-22T04:52:58;19.05;;;15.95;;
60492;SDS011;46341;51.290;-2.474;2023-06-22T04:55:25;20.58;;;16.05;;
60492;SDS011;46341;51.290;-2.474;2023-06-22T04:57:51;19.93;;;15.57;;
60492;SDS011;46341;51.290;-2.474;2023-06-22T05:00:18;22.27;;;17.83;;
60492;SDS011;46341;51.290;-2.474;2023-06-22T05:02:46;19.30;;;16.27;;
60492;SDS011;46341;51.290;-2.474;2023-06-22T05:05:13;20.40;;;17.42;;
60492;SDS011;46341;51.290;-2.474;2023-06-22T05:07:43;19.70;;;17.20;;
60492;SDS011;46341;51.290;-2.474;2023-06-22T05:10:11;18.77;;;16.27;;
60492;SDS011;46341;51.290;-2.474;2023-06-22T05:12:38;19.17;;;16.88;;
60492;SDS011;46341;51.290;-2.474;2023-06-22T05:15:06;19.55;;;16.33;;
60492;SDS011;46341;51.290;-2.474;2023-06-22T05:19:59;19.67;;;17.35;;
60492;SDS011;46341;51.290;-2.474;2023-06-22T05:22:25;19.15;;;17.15;;
60492;SDS011;46341;51.290;-2.474;2023-06-22T05:24:52;19.13;;;16.55;;
60492;SDS011;46341;51.290;-2.474;2023-06-22T05:27:22;19.85;;;17.63;;
60492;SDS011;46341;51.290;-2.474;2023-06-22T05:29:48;18.08;;;16.15;;
60492;SDS011;46341;51.290;-2.474;2023-06-22T05:32:14;18.80;;;16.90;;
60492;SDS011;46341;51.290;-2.474;2023-06-22T05:34:41;19.13;;;17.10;;
60492;SDS011;46341;51.290;-2.474;2023-06-22T05:37:07;18.25;;;16.35;;
60492;SDS011;46341;51.290;-2.474;2023-06-22T05:39:35;19.50;;;17.52;;
60492;SDS011;46341;51.290;-2.474;2023-06-22T05:42:05;19.00;;;16.70;;
60492;SDS011;46341;51.290;-2.474;2023-06-22T05:44:35;21.40;;;17.42;;
60492;SDS011;46341;51.290;-2.474;2023-06-22T05:47:03;18.58;;;16.73;;
60492;SDS011;46341;51.290;-2.474;2023-06-22T05:49:30;18.38;;;15.93;;
60492;SDS011;46341;51.290;-2.474;2023-06-22T05:51:59;18.20;;;16.27;;
60492;SDS011;46341;51.290;-2.474;2023-06-22T05:54:28;18.13;;;16.30;;
60492;SDS011;46341;51.290;-2.474;2023-06-22T05:56:55;17.55;;;15.75;;
60492;SDS011;46341;51.290;-2.474;2023-06-22T05:59:22;17.77;;;16.08;;
60492;SDS011;46341;51.290;-2.474;2023-06-22T06:01:48;15.95;;;14.25;;
60492;SDS011;46341;51.290;-2.474;2023-06-22T06:04:18;15.73;;;14.13;;
60492;SDS011;46341;51.290;-2.474;2023-06-22T06:06:45;17.17;;;15.48;;
60492;SDS011;46341;51.290;-2.474;2023-06-22T06:09:15;16.60;;;14.90;;
60492;SDS011;46341;51.290;-2.474;2023-06-22T06:11:42;16.08;;;14.48;;
60492;SDS011;46341;51.290;-2.474;2023-06-22T06:14:09;15.30;;;13.60;;
60492;SDS011;46341;51.290;-2.474;2023-06-22T06:16:35;15.70;;;14.20;;
60492;SDS011;46341;51.290;-2.474;2023-06-22T06:19:01;15.20;;;13.57;;
60492;SDS011;46341;51.290;-2.474;2023-06-22T06:21:28;17.48;;;15.27;;
60492;SDS011;46341;51.290;-2.474;2023-06-22T06:23:56;14.55;;;13.25;;
60492;SDS011;46341;51.290;-2.474;2023-06-22T06:26:23;16.13;;;13.27;;
60492;SDS011;46341;51.290;-2.474;2023-06-22T06:28:55;14.63;;;13.13;;
60492;SDS011;46341;51.290;-2.474;2023-06-22T06:31:21;14.18;;;12.77;;
60492;SDS011;46341;51.290;-2.474;2023-06-22T06:33:48;12.43;;;11.23;;
60492;SDS011;46341;51.290;-2.474;2023-06-22T06:36:14;12.50;;;11.23;;
60492;SDS011;46341;51.290;-2.474;2023-06-22T06:38:41;12.85;;;11.00;;
60492;SDS011;46341;51.290;-2.474;2023-06-22T06:41:08;12.50;;;11.30;;
60492;SDS011;46341;51.290;-2.474;2023-06-22T06:43:34;11.48;;;10.38;;
60492;SDS011;46341;51.290;-2.474;2023-06-22T06:46:01;11.70;;;10.50;;
60492;SDS011;46341;51.290;-2.474;2023-06-22T06:48:29;12.45;;;9.63;;
60492;SDS011;46341;51.290;-2.474;2023-06-22T06:50:56;10.80;;;9.70;;
60492;SDS011;46341;51.290;-2.474;2023-06-22T06:53:22;9.15;;;8.30;;
60492;SDS011;46341;51.290;-2.474;2023-06-22T06:55:49;8.32;;;7.63;;
60492;SDS011;46341;51.290;-2.474;2023-06-22T06:58:15;8.18;;;7.47;;
60492;SDS011;46341;51.290;-2.474;2023-06-22T07:00:42;7.65;;;6.90;;
60492;SDS011;46341;51.290;-2.474;2023-06-22T07:03:09;7.07;;;6.47;;
60492;SDS011;46341;51.290;-2.474;2023-06-22T07:05:36;7.97;;;6.13;;
60492;SDS011;46341;51.290;-2.474;2023-06-22T07:08:02;6.63;;;6.03;;
60492;SDS011;46341;51.290;-2.474;2023-06-22T07:10:29;6.20;;;5.70;;
60492;SDS011;46341;51.290;-2.474;2023-06-22T07:12:56;6.80;;;6.20;;
60492;SDS011;46341;51.290;-2.474;2023-06-22T07:15:23;6.75;;;6.15;;
60492;SDS011;46341;51.290;-2.474;2023-06-22T07:17:50;7.47;;;6.30;;
60492;SDS011;46341;51.290;-2.474;2023-06-22T07:20:16;6.45;;;5.90;;
60492;SDS011;46341;51.290;-2.474;2023-06-22T07:22:44;6.32;;;5.72;;
60492;SDS011;46341;51.290;-2.474;2023-06-22T07:25:13;6.50;;;5.60;;
60492;SDS011;46341;51.290;-2.474;2023-06-22T07:27:56;6.97;;;5.40;;
60492;SDS011;46341;51.290;-2.474;2023-06-22T07:30:23;5.32;;;4.80;;
60492;SDS011;46341;51.290;-2.474;2023-06-22T07:32:50;5.20;;;4.80;;
60492;SDS011;46341;51.290;-2.474;2023-06-22T07:35:16;4.95;;;4.50;;
60492;SDS011;46341;51.290;-2.474;2023-06-22T07:37:43;5.78;;;4.93;;
60492;SDS011;46341;51.290;-2.474;2023-06-22T07:40:09;5.50;;;4.93;;
60492;SDS011;46341;51.290;-2.474;2023-06-22T07:42:36;5.72;;;4.78;;
60492;SDS011;46341;51.290;-2.474;2023-06-22T07:45:03;5.73;;;5.20;;
60492;SDS011;46341;51.290;-2.474;2023-06-22T07:47:30;5.30;;;4.43;;
60492;SDS011;46341;51.290;-2.474;2023-06-22T07:49:58;5.53;;;4.45;;
60492;SDS011;46341;51.290;-2.474;2023-06-22T07:52:24;4.90;;;4.50;;
